RZO127 LPPT-LPPD
Flight info
| Callsign | RZO127 |
|---|---|
| Flight time | N/A |
| Altitude | 37000 |
| Route | ZIFOG DCT TABAX DCT KOMUT/M079F360 DCT 38N020W DCT BEKUN DCT OMOBI |
| Aircraft | A320/M-SDE1FGHIRWXY/LB1 |
Departure
| Time | N/A |
|---|---|
| Airport | Lisbon Humberto Delgado Airport (LPPT) |
Arrival
| Time | 2026-05-03 22:23 |
|---|---|
| Airport | João Paulo II Airport (LPPD) |
| Time | Latitude | Longitude | Altitude | Speed | Heading |
|---|---|---|---|---|---|
| 2026-05-03 20:15 | 38.73857 | -10.46878 | 24087 ft | 366 kts | 259° |
| 2026-05-03 20:15 | 38.73400 | -10.50092 | 24090 ft | 366 kts | 259° |
| 2026-05-03 20:15 | 38.72944 | -10.53306 | 24090 ft | 366 kts | 259° |
| 2026-05-03 20:15 | 38.72487 | -10.56518 | 24089 ft | 366 kts | 259° |
| 2026-05-03 20:16 | 38.72030 | -10.59716 | 24099 ft | 366 kts | 259° |
| 2026-05-03 20:16 | 38.71569 | -10.62930 | 24095 ft | 366 kts | 259° |
| 2026-05-03 20:16 | 38.71108 | -10.66134 | 24095 ft | 366 kts | 259° |
| 2026-05-03 20:16 | 38.70643 | -10.69346 | 24095 ft | 366 kts | 259° |
| 2026-05-03 20:17 | 38.70179 | -10.72549 | 24095 ft | 366 kts | 259° |
| 2026-05-03 20:17 | 38.69715 | -10.75752 | 24097 ft | 366 kts | 259° |
| 2026-05-03 20:17 | 38.69249 | -10.78964 | 24098 ft | 366 kts | 259° |
| 2026-05-03 20:17 | 38.68783 | -10.82169 | 24097 ft | 366 kts | 259° |
| 2026-05-03 20:18 | 38.68318 | -10.85363 | 24098 ft | 366 kts | 259° |
| 2026-05-03 20:18 | 38.67849 | -10.88572 | 24103 ft | 366 kts | 259° |
| 2026-05-03 20:18 | 38.67383 | -10.91773 | 24104 ft | 366 kts | 259° |
| 2026-05-03 20:18 | 38.66915 | -10.94977 | 24098 ft | 366 kts | 259° |
| 2026-05-03 20:19 | 38.66446 | -10.98174 | 24108 ft | 366 kts | 260° |
| 2026-05-03 20:19 | 38.65980 | -11.01333 | 24106 ft | 366 kts | 260° |
| 2026-05-03 20:19 | 38.65509 | -11.04532 | 24106 ft | 366 kts | 260° |
| 2026-05-03 20:19 | 38.65036 | -11.07729 | 24106 ft | 366 kts | 259° |
| 2026-05-03 20:20 | 38.64560 | -11.10928 | 24105 ft | 366 kts | 259° |
| 2026-05-03 20:20 | 38.64087 | -11.14122 | 24106 ft | 366 kts | 260° |
| 2026-05-03 20:20 | 38.63614 | -11.17327 | 24108 ft | 366 kts | 259° |
| 2026-05-03 20:20 | 38.63137 | -11.20530 | 24109 ft | 366 kts | 259° |
| 2026-05-03 20:21 | 38.62659 | -11.23728 | 24104 ft | 366 kts | 259° |
| 2026-05-03 20:21 | 38.62183 | -11.26923 | 24106 ft | 366 kts | 259° |
| 2026-05-03 20:21 | 38.61706 | -11.30124 | 24106 ft | 366 kts | 259° |
| 2026-05-03 20:21 | 38.61230 | -11.33320 | 24106 ft | 366 kts | 260° |
| 2026-05-03 20:22 | 38.60751 | -11.36518 | 24113 ft | 366 kts | 260° |
| 2026-05-03 20:22 | 38.60269 | -11.39716 | 24111 ft | 366 kts | 260° |
| 2026-05-03 20:22 | 38.59782 | -11.42919 | 24112 ft | 366 kts | 260° |
| 2026-05-03 20:22 | 38.59293 | -11.46116 | 24110 ft | 366 kts | 260° |
| 2026-05-03 20:23 | 38.58807 | -11.49312 | 24109 ft | 366 kts | 260° |
| 2026-05-03 20:23 | 38.58327 | -11.52503 | 24110 ft | 366 kts | 260° |
| 2026-05-03 20:23 | 38.57853 | -11.55655 | 24111 ft | 366 kts | 260° |
| 2026-05-03 20:23 | 38.57369 | -11.58849 | 24112 ft | 366 kts | 260° |
| 2026-05-03 20:24 | 38.56881 | -11.62044 | 24116 ft | 366 kts | 260° |
| 2026-05-03 20:24 | 38.56394 | -11.65237 | 24114 ft | 366 kts | 260° |
| 2026-05-03 20:24 | 38.55907 | -11.68425 | 24114 ft | 366 kts | 260° |
| 2026-05-03 20:24 | 38.55417 | -11.71613 | 24114 ft | 366 kts | 260° |
| 2026-05-03 20:25 | 38.54924 | -11.74806 | 24112 ft | 366 kts | 260° |
| 2026-05-03 20:25 | 38.54429 | -11.77996 | 24120 ft | 366 kts | 260° |
| 2026-05-03 20:25 | 38.53937 | -11.81183 | 24118 ft | 366 kts | 260° |
| 2026-05-03 20:25 | 38.53445 | -11.84372 | 24120 ft | 366 kts | 260° |
| 2026-05-03 20:26 | 38.52951 | -11.87561 | 24119 ft | 366 kts | 260° |
| 2026-05-03 20:26 | 38.52455 | -11.90755 | 24119 ft | 366 kts | 260° |
| 2026-05-03 20:26 | 38.51961 | -11.93946 | 24120 ft | 366 kts | 260° |
| 2026-05-03 20:26 | 38.51466 | -11.97133 | 24119 ft | 366 kts | 259° |
| 2026-05-03 20:27 | 38.50974 | -12.00281 | 24124 ft | 366 kts | 259° |
| 2026-05-03 20:27 | 38.50476 | -12.03463 | 24122 ft | 366 kts | 259° |
| 2026-05-03 20:27 | 38.49973 | -12.06663 | 24121 ft | 366 kts | 260° |
| 2026-05-03 20:27 | 38.49472 | -12.09854 | 24121 ft | 366 kts | 260° |
| 2026-05-03 20:28 | 38.48970 | -12.13050 | 24103 ft | 367 kts | 260° |
| 2026-05-03 20:28 | 38.48468 | -12.16242 | 24132 ft | 367 kts | 260° |
| 2026-05-03 20:28 | 38.47962 | -12.19444 | 24125 ft | 367 kts | 260° |
| 2026-05-03 20:28 | 38.47453 | -12.22645 | 24126 ft | 367 kts | 260° |
| 2026-05-03 20:29 | 38.46947 | -12.25836 | 24126 ft | 367 kts | 260° |
| 2026-05-03 20:29 | 38.46441 | -12.29033 | 24123 ft | 367 kts | 260° |
| 2026-05-03 20:29 | 38.45944 | -12.32188 | 24131 ft | 367 kts | 260° |
| 2026-05-03 20:29 | 38.45439 | -12.35384 | 24132 ft | 367 kts | 260° |
| 2026-05-03 20:30 | 38.44929 | -12.38577 | 24136 ft | 367 kts | 260° |
| 2026-05-03 20:30 | 38.44418 | -12.41771 | 24128 ft | 367 kts | 260° |
| 2026-05-03 20:30 | 38.43898 | -12.45005 | 24133 ft | 368 kts | 260° |
| 2026-05-03 20:30 | 38.43389 | -12.48168 | 24136 ft | 368 kts | 260° |
| 2026-05-03 20:31 | 38.42872 | -12.51368 | 24150 ft | 370 kts | 260° |
| 2026-05-03 20:31 | 38.42354 | -12.54591 | 24554 ft | 372 kts | 260° |
| 2026-05-03 20:31 | 38.41832 | -12.57837 | 24983 ft | 374 kts | 260° |
| 2026-05-03 20:31 | 38.41304 | -12.61098 | 25392 ft | 376 kts | 260° |
| 2026-05-03 20:32 | 38.40771 | -12.64370 | 25800 ft | 378 kts | 260° |
| 2026-05-03 20:32 | 38.40236 | -12.67657 | 26180 ft | 380 kts | 260° |
| 2026-05-03 20:32 | 38.39699 | -12.70963 | 26560 ft | 382 kts | 260° |
| 2026-05-03 20:32 | 38.39157 | -12.74295 | 26940 ft | 384 kts | 260° |
| 2026-05-03 20:33 | 38.38614 | -12.77626 | 27298 ft | 386 kts | 260° |
| 2026-05-03 20:33 | 38.38066 | -12.80980 | 27622 ft | 388 kts | 260° |
| 2026-05-03 20:33 | 38.37512 | -12.84376 | 27960 ft | 391 kts | 260° |
| 2026-05-03 20:33 | 38.36957 | -12.87774 | 28300 ft | 393 kts | 260° |
| 2026-05-03 20:34 | 38.36407 | -12.91150 | 28634 ft | 395 kts | 260° |
| 2026-05-03 20:34 | 38.35845 | -12.94581 | 28962 ft | 397 kts | 260° |
| 2026-05-03 20:34 | 38.35277 | -12.98033 | 29277 ft | 398 kts | 260° |
| 2026-05-03 20:34 | 38.34702 | -13.01494 | 29583 ft | 400 kts | 260° |
| 2026-05-03 20:35 | 38.34316 | -13.03807 | 29789 ft | 401 kts | 260° |
| 2026-05-03 20:35 | 38.33537 | -13.08469 | 30168 ft | 404 kts | 260° |
| 2026-05-03 20:35 | 38.33141 | -13.10837 | 30330 ft | 405 kts | 260° |
| 2026-05-03 20:35 | 38.32558 | -13.14320 | 30541 ft | 406 kts | 260° |
| 2026-05-03 20:36 | 38.31970 | -13.17846 | 30722 ft | 409 kts | 260° |
| 2026-05-03 20:36 | 38.31376 | -13.21409 | 30952 ft | 410 kts | 260° |
| 2026-05-03 20:36 | 38.30785 | -13.24953 | 31265 ft | 409 kts | 260° |
| 2026-05-03 20:36 | 38.30195 | -13.28485 | 31578 ft | 407 kts | 260° |
| 2026-05-03 20:37 | 38.29604 | -13.32011 | 31899 ft | 406 kts | 260° |
| 2026-05-03 20:37 | 38.29014 | -13.35516 | 32220 ft | 405 kts | 260° |
| 2026-05-03 20:37 | 38.28422 | -13.39012 | 32542 ft | 403 kts | 259° |
| 2026-05-03 20:37 | 38.27828 | -13.42491 | 32864 ft | 402 kts | 259° |
| 2026-05-03 20:38 | 38.27235 | -13.45969 | 33189 ft | 401 kts | 259° |
| 2026-05-03 20:38 | 38.26654 | -13.49388 | 33503 ft | 400 kts | 259° |
| 2026-05-03 20:38 | 38.26066 | -13.52843 | 33794 ft | 399 kts | 259° |
| 2026-05-03 20:38 | 38.25476 | -13.56301 | 34078 ft | 399 kts | 259° |
| 2026-05-03 20:39 | 38.24886 | -13.59751 | 34342 ft | 399 kts | 259° |
| 2026-05-03 20:39 | 38.24299 | -13.63191 | 34589 ft | 398 kts | 259° |
| 2026-05-03 20:39 | 38.23712 | -13.66639 | 34831 ft | 398 kts | 259° |
| 2026-05-03 20:39 | 38.23124 | -13.70076 | 35058 ft | 398 kts | 259° |
| 2026-05-03 20:40 | 38.22532 | -13.73529 | 35275 ft | 398 kts | 259° |
| 2026-05-03 20:40 | 38.21939 | -13.76972 | 35487 ft | 399 kts | 259° |
| 2026-05-03 20:40 | 38.21343 | -13.80411 | 35700 ft | 399 kts | 259° |
| 2026-05-03 20:40 | 38.20745 | -13.83856 | 35905 ft | 399 kts | 259° |
| 2026-05-03 20:41 | 38.20149 | -13.87303 | 36087 ft | 399 kts | 259° |
| 2026-05-03 20:41 | 38.19554 | -13.90748 | 36279 ft | 399 kts | 259° |
| 2026-05-03 20:41 | 38.18956 | -13.94191 | 36471 ft | 399 kts | 259° |
| 2026-05-03 20:41 | 38.18356 | -13.97644 | 36662 ft | 399 kts | 259° |
| 2026-05-03 20:42 | 38.17756 | -14.01090 | 36850 ft | 399 kts | 259° |
| 2026-05-03 20:42 | 38.17155 | -14.04536 | 37038 ft | 399 kts | 259° |
| 2026-05-03 20:42 | 38.16550 | -14.07982 | 37150 ft | 400 kts | 259° |
| 2026-05-03 20:43 | 38.15331 | -14.14878 | 37160 ft | 400 kts | 259° |
| 2026-05-03 20:43 | 38.14121 | -14.21720 | 37145 ft | 399 kts | 259° |
| 2026-05-03 20:44 | 38.12901 | -14.28612 | 37167 ft | 399 kts | 259° |
| 2026-05-03 20:44 | 38.11678 | -14.35497 | 37174 ft | 400 kts | 259° |
| 2026-05-03 20:45 | 38.10452 | -14.42380 | 37174 ft | 400 kts | 259° |
| 2026-05-03 20:45 | 38.09215 | -14.49277 | 37171 ft | 400 kts | 259° |
| 2026-05-03 20:46 | 38.07984 | -14.56155 | 37171 ft | 400 kts | 259° |
| 2026-05-03 20:46 | 38.06745 | -14.63044 | 37163 ft | 400 kts | 259° |
| 2026-05-03 20:47 | 38.05495 | -14.69936 | 37164 ft | 400 kts | 259° |
| 2026-05-03 20:47 | 38.04242 | -14.76816 | 37159 ft | 400 kts | 259° |
| 2026-05-03 20:48 | 38.03003 | -14.83661 | 37169 ft | 401 kts | 259° |
| 2026-05-03 20:48 | 38.01747 | -14.90554 | 37176 ft | 401 kts | 259° |
| 2026-05-03 20:49 | 38.00472 | -14.97451 | 37150 ft | 401 kts | 259° |
| 2026-05-03 20:49 | 38.00096 | -15.04445 | 37159 ft | 398 kts | 272° |
| 2026-05-03 20:50 | 38.00253 | -15.11471 | 37161 ft | 399 kts | 272° |
| 2026-05-03 20:50 | 38.00390 | -15.18504 | 37164 ft | 399 kts | 272° |
| 2026-05-03 20:51 | 38.00517 | -15.25530 | 37169 ft | 399 kts | 272° |
| 2026-05-03 20:51 | 38.00648 | -15.32533 | 37174 ft | 399 kts | 272° |
| 2026-05-03 20:52 | 38.00779 | -15.39579 | 37180 ft | 399 kts | 272° |
| 2026-05-03 20:52 | 38.00905 | -15.46623 | 37181 ft | 399 kts | 272° |
| 2026-05-03 20:53 | 38.01025 | -15.53666 | 37184 ft | 399 kts | 271° |
| 2026-05-03 20:53 | 38.01138 | -15.60705 | 37185 ft | 399 kts | 271° |
| 2026-05-03 20:54 | 38.01242 | -15.67744 | 37173 ft | 399 kts | 271° |
| 2026-05-03 20:54 | 38.01399 | -15.78269 | 37179 ft | 400 kts | 271° |
| 2026-05-03 20:55 | 38.01508 | -15.85367 | 37184 ft | 400 kts | 271° |
| 2026-05-03 20:55 | 38.01605 | -15.92372 | 37186 ft | 400 kts | 271° |
| 2026-05-03 20:56 | 38.01694 | -15.99425 | 37189 ft | 400 kts | 271° |
| 2026-05-03 20:56 | 38.01784 | -16.06496 | 37190 ft | 401 kts | 272° |
| 2026-05-03 20:57 | 38.01871 | -16.13569 | 37185 ft | 401 kts | 272° |
| 2026-05-03 20:57 | 38.01947 | -16.20617 | 37184 ft | 402 kts | 271° |
| 2026-05-03 20:58 | 38.02024 | -16.27700 | 37186 ft | 402 kts | 271° |
| 2026-05-03 20:58 | 38.02093 | -16.34799 | 37189 ft | 402 kts | 271° |
| 2026-05-03 20:59 | 38.02156 | -16.41914 | 37178 ft | 403 kts | 271° |
| 2026-05-03 20:59 | 38.02222 | -16.49034 | 37182 ft | 404 kts | 272° |
| 2026-05-03 21:00 | 38.02277 | -16.54960 | 37188 ft | 404 kts | 271° |
| 2026-05-03 21:00 | 38.02346 | -16.63307 | 37197 ft | 404 kts | 271° |
| 2026-05-03 21:01 | 38.02385 | -16.70412 | 37182 ft | 405 kts | 271° |
| 2026-05-03 21:01 | 38.02425 | -16.77548 | 37184 ft | 405 kts | 271° |
| 2026-05-03 21:02 | 38.02468 | -16.84692 | 37187 ft | 405 kts | 271° |
| 2026-05-03 21:02 | 38.02513 | -16.91837 | 37191 ft | 405 kts | 271° |
| 2026-05-03 21:03 | 38.02549 | -16.98983 | 37193 ft | 405 kts | 271° |
| 2026-05-03 21:03 | 38.02572 | -17.06140 | 37182 ft | 406 kts | 271° |
| 2026-05-03 21:04 | 38.02599 | -17.13309 | 37185 ft | 407 kts | 271° |
| 2026-05-03 21:04 | 38.02626 | -17.20480 | 37190 ft | 407 kts | 271° |
| 2026-05-03 21:05 | 38.02639 | -17.27631 | 37196 ft | 408 kts | 271° |
| 2026-05-03 21:05 | 38.02650 | -17.34838 | 37203 ft | 408 kts | 271° |
| 2026-05-03 21:06 | 38.02653 | -17.42049 | 37198 ft | 409 kts | 271° |
| 2026-05-03 21:06 | 38.02651 | -17.49264 | 37203 ft | 409 kts | 271° |
| 2026-05-03 21:07 | 38.02651 | -17.56510 | 37219 ft | 410 kts | 271° |
| 2026-05-03 21:07 | 38.02646 | -17.63751 | 37218 ft | 411 kts | 271° |
| 2026-05-03 21:08 | 38.02636 | -17.70999 | 37214 ft | 411 kts | 271° |
| 2026-05-03 21:08 | 38.02621 | -17.78208 | 37196 ft | 411 kts | 271° |
| 2026-05-03 21:09 | 38.02602 | -17.85470 | 37196 ft | 412 kts | 271° |
| 2026-05-03 21:09 | 38.02578 | -17.92732 | 37205 ft | 412 kts | 271° |
| 2026-05-03 21:10 | 38.02547 | -18.00009 | 37212 ft | 412 kts | 271° |
| 2026-05-03 21:10 | 38.02517 | -18.07292 | 37217 ft | 413 kts | 271° |
| 2026-05-03 21:11 | 38.02483 | -18.14572 | 37206 ft | 413 kts | 271° |
| 2026-05-03 21:11 | 38.02436 | -18.21823 | 37208 ft | 413 kts | 271° |
| 2026-05-03 21:12 | 38.02385 | -18.29116 | 37209 ft | 414 kts | 271° |
| 2026-05-03 21:12 | 38.02339 | -18.36425 | 37211 ft | 414 kts | 271° |
| 2026-05-03 21:13 | 38.02287 | -18.43721 | 37218 ft | 414 kts | 270° |
| 2026-05-03 21:13 | 38.02224 | -18.51020 | 37206 ft | 414 kts | 270° |
| 2026-05-03 21:14 | 38.02158 | -18.58333 | 37211 ft | 415 kts | 270° |
| 2026-05-03 21:14 | 38.02089 | -18.65646 | 37214 ft | 415 kts | 270° |
| 2026-05-03 21:15 | 38.02020 | -18.72965 | 37215 ft | 415 kts | 270° |
| 2026-05-03 21:15 | 38.01938 | -18.80247 | 37219 ft | 415 kts | 270° |
| 2026-05-03 21:16 | 38.01850 | -18.87572 | 37221 ft | 416 kts | 270° |
| 2026-05-03 21:16 | 38.01767 | -18.94908 | 37230 ft | 416 kts | 270° |
| 2026-05-03 21:17 | 38.01689 | -19.01009 | 37243 ft | 416 kts | 270° |
| 2026-05-03 21:17 | 38.01576 | -19.09594 | 37238 ft | 417 kts | 270° |
| 2026-05-03 21:18 | 38.01478 | -19.16910 | 37223 ft | 417 kts | 270° |
| 2026-05-03 21:18 | 38.01372 | -19.24276 | 37225 ft | 418 kts | 270° |
| 2026-05-03 21:19 | 38.01263 | -19.31655 | 37228 ft | 418 kts | 270° |
| 2026-05-03 21:19 | 38.01169 | -19.37779 | 37231 ft | 418 kts | 270° |
| 2026-05-03 21:20 | 38.01043 | -19.45152 | 37230 ft | 418 kts | 270° |
| 2026-05-03 21:20 | 38.00898 | -19.53735 | 37229 ft | 419 kts | 270° |
| 2026-05-03 21:21 | 38.00772 | -19.61117 | 37237 ft | 419 kts | 270° |
| 2026-05-03 21:21 | 38.00629 | -19.68500 | 37235 ft | 419 kts | 270° |
| 2026-05-03 21:22 | 38.00514 | -19.74641 | 37241 ft | 419 kts | 270° |
| 2026-05-03 21:22 | 38.00376 | -19.82033 | 37235 ft | 419 kts | 270° |
| 2026-05-03 21:23 | 38.00231 | -19.89431 | 37236 ft | 419 kts | 270° |
| 2026-05-03 21:23 | 38.00078 | -19.96833 | 37238 ft | 420 kts | 270° |
| 2026-05-03 21:24 | 37.99945 | -20.04234 | 37248 ft | 420 kts | 271° |
| 2026-05-03 21:24 | 37.99932 | -20.11630 | 37245 ft | 420 kts | 271° |
| 2026-05-03 21:25 | 37.99948 | -20.18991 | 37237 ft | 420 kts | 271° |
| 2026-05-03 21:25 | 37.99931 | -20.26401 | 37238 ft | 420 kts | 271° |
| 2026-05-03 21:26 | 37.99894 | -20.33808 | 37247 ft | 420 kts | 271° |
| 2026-05-03 21:26 | 37.99845 | -20.41219 | 37257 ft | 421 kts | 271° |
| 2026-05-03 21:27 | 37.99799 | -20.48642 | 37239 ft | 421 kts | 271° |
| 2026-05-03 21:27 | 37.99752 | -20.56076 | 37243 ft | 422 kts | 271° |
| 2026-05-03 21:28 | 37.99693 | -20.63506 | 37253 ft | 422 kts | 271° |
| 2026-05-03 21:28 | 37.99634 | -20.70913 | 37253 ft | 422 kts | 271° |
| 2026-05-03 21:29 | 37.99574 | -20.78356 | 37254 ft | 422 kts | 271° |
| 2026-05-03 21:29 | 37.99508 | -20.85806 | 37245 ft | 423 kts | 270° |
| 2026-05-03 21:30 | 37.99426 | -20.93259 | 37247 ft | 423 kts | 270° |
| 2026-05-03 21:30 | 37.99342 | -21.00729 | 37251 ft | 423 kts | 270° |
| 2026-05-03 21:31 | 37.99266 | -21.08197 | 37255 ft | 424 kts | 270° |
| 2026-05-03 21:31 | 37.99188 | -21.15674 | 37250 ft | 424 kts | 270° |
| 2026-05-03 21:32 | 37.99090 | -21.23104 | 37255 ft | 424 kts | 270° |
| 2026-05-03 21:32 | 37.98987 | -21.30586 | 37258 ft | 424 kts | 270° |
| 2026-05-03 21:33 | 37.98885 | -21.38073 | 37263 ft | 424 kts | 270° |
| 2026-05-03 21:33 | 37.98780 | -21.45553 | 37265 ft | 424 kts | 270° |
| 2026-05-03 21:34 | 37.98663 | -21.53040 | 37250 ft | 425 kts | 270° |
| 2026-05-03 21:34 | 37.98542 | -21.60531 | 37257 ft | 425 kts | 270° |
| 2026-05-03 21:35 | 37.98426 | -21.68024 | 37267 ft | 426 kts | 270° |
| 2026-05-03 21:35 | 37.98295 | -21.75537 | 37264 ft | 426 kts | 270° |
| 2026-05-03 21:36 | 37.98168 | -21.83002 | 37253 ft | 427 kts | 270° |
| 2026-05-03 21:36 | 37.98039 | -21.90532 | 37255 ft | 427 kts | 270° |
| 2026-05-03 21:37 | 37.97895 | -21.98111 | 37262 ft | 428 kts | 270° |
| 2026-05-03 21:37 | 37.97751 | -22.05596 | 37265 ft | 428 kts | 270° |
| 2026-05-03 21:38 | 37.97601 | -22.13184 | 37269 ft | 428 kts | 270° |
| 2026-05-03 21:38 | 37.97449 | -22.20723 | 37273 ft | 428 kts | 270° |
| 2026-05-03 21:39 | 37.97289 | -22.28223 | 37275 ft | 428 kts | 269° |
| 2026-05-03 21:39 | 37.97116 | -22.35766 | 37276 ft | 428 kts | 269° |
| 2026-05-03 21:40 | 37.96940 | -22.43316 | 37277 ft | 428 kts | 269° |
| 2026-05-03 21:40 | 37.96769 | -22.50860 | 37263 ft | 428 kts | 269° |
| 2026-05-03 21:41 | 37.96591 | -22.58411 | 37266 ft | 429 kts | 269° |
| 2026-05-03 21:41 | 37.96406 | -22.65960 | 37280 ft | 429 kts | 269° |
| 2026-05-03 21:42 | 37.96213 | -22.73522 | 37282 ft | 429 kts | 269° |
| 2026-05-03 21:42 | 37.96024 | -22.81083 | 37280 ft | 429 kts | 269° |
| 2026-05-03 21:43 | 37.95832 | -22.88609 | 37285 ft | 429 kts | 269° |
| 2026-05-03 21:43 | 37.95623 | -22.96184 | 37278 ft | 430 kts | 269° |
| 2026-05-03 21:44 | 37.95408 | -23.03761 | 37279 ft | 431 kts | 269° |
| 2026-05-03 21:44 | 37.95188 | -23.11365 | 37279 ft | 431 kts | 269° |
| 2026-05-03 21:45 | 37.94973 | -23.18963 | 37279 ft | 431 kts | 269° |
| 2026-05-03 21:45 | 37.94759 | -23.26555 | 37286 ft | 432 kts | 269° |
| 2026-05-03 21:46 | 37.94525 | -23.34160 | 37288 ft | 432 kts | 269° |
| 2026-05-03 21:46 | 37.94275 | -23.41712 | 37282 ft | 432 kts | 269° |
| 2026-05-03 21:47 | 37.94031 | -23.49323 | 37282 ft | 432 kts | 269° |
| 2026-05-03 21:47 | 37.93791 | -23.56930 | 37283 ft | 432 kts | 269° |
| 2026-05-03 21:48 | 37.93542 | -23.64546 | 37283 ft | 432 kts | 268° |
| 2026-05-03 21:48 | 37.93290 | -23.72155 | 37296 ft | 432 kts | 269° |
| 2026-05-03 21:49 | 37.93031 | -23.79773 | 37293 ft | 432 kts | 268° |
| 2026-05-03 21:49 | 37.92767 | -23.87385 | 37134 ft | 433 kts | 268° |
| 2026-05-03 21:50 | 37.92631 | -23.91186 | 36874 ft | 432 kts | 268° |
| 2026-05-03 21:50 | 37.92493 | -23.94936 | 36619 ft | 432 kts | 268° |
| 2026-05-03 21:50 | 37.92351 | -23.98750 | 36363 ft | 433 kts | 268° |
| 2026-05-03 21:50 | 37.92208 | -24.02560 | 36111 ft | 434 kts | 268° |
| 2026-05-03 21:51 | 37.92064 | -24.06383 | 35863 ft | 434 kts | 268° |
| 2026-05-03 21:51 | 37.91918 | -24.10205 | 35615 ft | 435 kts | 268° |
| 2026-05-03 21:51 | 37.91773 | -24.14044 | 35368 ft | 438 kts | 268° |
| 2026-05-03 21:51 | 37.91631 | -24.17891 | 35126 ft | 439 kts | 268° |
| 2026-05-03 21:52 | 37.91485 | -24.21747 | 34889 ft | 438 kts | 268° |
| 2026-05-03 21:52 | 37.91335 | -24.25615 | 34647 ft | 440 kts | 268° |
| 2026-05-03 21:52 | 37.91184 | -24.29480 | 34018 ft | 440 kts | 268° |
| 2026-05-03 21:52 | 37.91032 | -24.33312 | 33067 ft | 430 kts | 268° |
| 2026-05-03 21:53 | 37.90881 | -24.37089 | 32112 ft | 432 kts | 268° |
| 2026-05-03 21:53 | 37.90729 | -24.40903 | 31305 ft | 432 kts | 268° |
| 2026-05-03 21:53 | 37.90578 | -24.44681 | 30765 ft | 427 kts | 268° |
| 2026-05-03 21:53 | 37.90429 | -24.48421 | 30108 ft | 423 kts | 268° |
| 2026-05-03 21:54 | 37.90280 | -24.52127 | 29472 ft | 419 kts | 268° |
| 2026-05-03 21:54 | 37.90130 | -24.55786 | 28872 ft | 414 kts | 268° |
| 2026-05-03 21:54 | 37.89981 | -24.59361 | 28295 ft | 410 kts | 268° |
| 2026-05-03 21:54 | 37.89830 | -24.62946 | 27716 ft | 406 kts | 268° |
| 2026-05-03 21:55 | 37.89676 | -24.66505 | 27134 ft | 402 kts | 268° |
| 2026-05-03 21:55 | 37.89525 | -24.70025 | 26566 ft | 399 kts | 268° |
| 2026-05-03 21:55 | 37.89370 | -24.73526 | 26005 ft | 397 kts | 266° |
| 2026-05-03 21:55 | 37.88869 | -24.76959 | 25451 ft | 396 kts | 254° |
| 2026-05-03 21:56 | 37.88077 | -24.80315 | 24904 ft | 402 kts | 256° |
| 2026-05-03 21:56 | 37.87679 | -24.83816 | 24361 ft | 402 kts | 271° |
| 2026-05-03 21:56 | 37.87814 | -24.87346 | 23822 ft | 400 kts | 274° |
| 2026-05-03 21:56 | 37.87978 | -24.90851 | 22808 ft | 399 kts | 274° |
| 2026-05-03 21:57 | 37.88147 | -24.94397 | 21261 ft | 407 kts | 274° |
| 2026-05-03 21:57 | 37.88321 | -24.97994 | 20011 ft | 409 kts | 274° |
| 2026-05-03 21:57 | 37.88493 | -25.01524 | 19424 ft | 393 kts | 274° |
| 2026-05-03 21:57 | 37.88659 | -25.04966 | 18917 ft | 391 kts | 274° |
| 2026-05-03 21:58 | 37.88827 | -25.08399 | 18352 ft | 390 kts | 274° |
| 2026-05-03 21:58 | 37.88991 | -25.11812 | 17803 ft | 387 kts | 274° |
| 2026-05-03 21:58 | 37.89152 | -25.15196 | 17270 ft | 384 kts | 274° |
| 2026-05-03 21:58 | 37.89309 | -25.18565 | 16744 ft | 382 kts | 274° |
| 2026-05-03 21:59 | 37.89461 | -25.21909 | 16223 ft | 380 kts | 274° |
| 2026-05-03 21:59 | 37.89611 | -25.25198 | 15711 ft | 378 kts | 274° |
| 2026-05-03 21:59 | 37.89766 | -25.28561 | 15181 ft | 377 kts | 274° |
| 2026-05-03 21:59 | 37.89914 | -25.31801 | 14666 ft | 367 kts | 274° |
| 2026-05-03 22:00 | 37.90057 | -25.34972 | 14172 ft | 355 kts | 274° |
| 2026-05-03 22:00 | 37.90195 | -25.38094 | 13636 ft | 355 kts | 274° |
| 2026-05-03 22:00 | 37.90333 | -25.41211 | 13122 ft | 354 kts | 274° |
| 2026-05-03 22:00 | 37.90473 | -25.44320 | 12618 ft | 353 kts | 274° |
| 2026-05-03 22:01 | 37.90611 | -25.47420 | 12091 ft | 352 kts | 274° |
| 2026-05-03 22:01 | 37.90747 | -25.50508 | 11568 ft | 351 kts | 274° |
| 2026-05-03 22:01 | 37.90881 | -25.53586 | 11040 ft | 349 kts | 274° |
| 2026-05-03 22:01 | 37.91015 | -25.56655 | 10668 ft | 343 kts | 274° |
| 2026-05-03 22:02 | 37.91141 | -25.59556 | 10520 ft | 318 kts | 274° |
| 2026-05-03 22:02 | 37.91258 | -25.62291 | 10152 ft | 306 kts | 274° |
| 2026-05-03 22:02 | 37.91372 | -25.64983 | 10035 ft | 305 kts | 274° |
| 2026-05-03 22:02 | 37.91487 | -25.67665 | 9831 ft | 305 kts | 274° |
| 2026-05-03 22:03 | 37.91603 | -25.70366 | 9373 ft | 305 kts | 274° |
| 2026-05-03 22:03 | 37.91713 | -25.73020 | 8822 ft | 300 kts | 274° |
| 2026-05-03 22:03 | 37.91820 | -25.75643 | 8146 ft | 295 kts | 274° |
| 2026-05-03 22:03 | 37.91924 | -25.78224 | 7536 ft | 292 kts | 274° |
| 2026-05-03 22:04 | 37.92028 | -25.80781 | 7000 ft | 290 kts | 274° |
| 2026-05-03 22:04 | 37.92135 | -25.83339 | 6459 ft | 293 kts | 274° |
| 2026-05-03 22:04 | 37.92078 | -25.85903 | 5951 ft | 294 kts | 257° |
| 2026-05-03 22:04 | 37.91224 | -25.88206 | 5614 ft | 287 kts | 230° |
| 2026-05-03 22:05 | 37.89757 | -25.89808 | 5120 ft | 273 kts | 204° |
| 2026-05-03 22:05 | 37.88587 | -25.90358 | 5034 ft | 271 kts | 191° |
| 2026-05-03 22:05 | 37.86748 | -25.90934 | 5015 ft | 274 kts | 191° |
| 2026-05-03 22:05 | 37.84897 | -25.91513 | 5018 ft | 274 kts | 191° |
| 2026-05-03 22:06 | 37.83057 | -25.92091 | 5010 ft | 268 kts | 191° |
| 2026-05-03 22:06 | 37.81298 | -25.92456 | 5011 ft | 244 kts | 172° |
| 2026-05-03 22:06 | 37.79786 | -25.91857 | 5011 ft | 218 kts | 142° |
| 2026-05-03 22:06 | 37.78791 | -25.90512 | 5016 ft | 207 kts | 114° |
| 2026-05-03 22:07 | 37.78350 | -25.88799 | 5013 ft | 204 kts | 101° |
| 2026-05-03 22:07 | 37.78005 | -25.87028 | 4487 ft | 209 kts | 102° |
| 2026-05-03 22:07 | 37.77654 | -25.85248 | 4065 ft | 204 kts | 102° |
| 2026-05-03 22:07 | 37.77313 | -25.83547 | 3965 ft | 195 kts | 102° |
| 2026-05-03 22:08 | 37.76983 | -25.81902 | 3690 ft | 191 kts | 102° |
| 2026-05-03 22:08 | 37.76670 | -25.80340 | 3356 ft | 181 kts | 102° |
| 2026-05-03 22:08 | 37.76364 | -25.78811 | 2862 ft | 178 kts | 101° |
| 2026-05-03 22:08 | 37.76063 | -25.77309 | 2331 ft | 176 kts | 102° |
| 2026-05-03 22:09 | 37.75764 | -25.75819 | 1839 ft | 173 kts | 102° |
| 2026-05-03 22:09 | 37.75436 | -25.74360 | 1336 ft | 172 kts | 111° |
| 2026-05-03 22:09 | 37.74595 | -25.73407 | 1196 ft | 158 kts | 158° |
| 2026-05-03 22:10 | 37.72449 | -25.73712 | 1295 ft | 185 kts | 189° |
| 2026-05-03 22:10 | 37.71111 | -25.74108 | 1652 ft | 203 kts | 191° |
| 2026-05-03 22:10 | 37.69700 | -25.74532 | 2262 ft | 214 kts | 189° |
| 2026-05-03 22:10 | 37.68239 | -25.74974 | 2863 ft | 218 kts | 189° |
| 2026-05-03 22:11 | 37.66760 | -25.75424 | 3454 ft | 219 kts | 189° |
| 2026-05-03 22:11 | 37.65261 | -25.75879 | 3904 ft | 225 kts | 190° |
| 2026-05-03 22:11 | 37.63743 | -25.76343 | 3998 ft | 223 kts | 190° |
| 2026-05-03 22:11 | 37.62235 | -25.76812 | 4009 ft | 223 kts | 190° |
| 2026-05-03 22:12 | 37.60729 | -25.77277 | 4012 ft | 223 kts | 190° |
| 2026-05-03 22:12 | 37.59217 | -25.77749 | 4014 ft | 223 kts | 190° |
| 2026-05-03 22:12 | 37.57714 | -25.78264 | 4012 ft | 225 kts | 200° |
| 2026-05-03 22:12 | 37.56441 | -25.79426 | 4015 ft | 230 kts | 231° |
| 2026-05-03 22:13 | 37.55786 | -25.81245 | 4015 ft | 231 kts | 263° |
| 2026-05-03 22:13 | 37.55933 | -25.83216 | 4016 ft | 226 kts | 295° |
| 2026-05-03 22:13 | 37.56795 | -25.84828 | 4020 ft | 221 kts | 318° |
| 2026-05-03 22:13 | 37.57860 | -25.86238 | 4017 ft | 222 kts | 317° |
| 2026-05-03 22:14 | 37.58909 | -25.87636 | 4016 ft | 222 kts | 317° |
| 2026-05-03 22:14 | 37.59967 | -25.89052 | 4016 ft | 222 kts | 317° |
| 2026-05-03 22:14 | 37.61023 | -25.90468 | 4016 ft | 221 kts | 317° |
| 2026-05-03 22:14 | 37.62077 | -25.91882 | 4016 ft | 221 kts | 317° |
| 2026-05-03 22:15 | 37.63131 | -25.93298 | 4015 ft | 221 kts | 317° |
| 2026-05-03 22:15 | 37.64184 | -25.94715 | 4017 ft | 221 kts | 317° |
| 2026-05-03 22:15 | 37.65236 | -25.96130 | 4017 ft | 222 kts | 317° |
| 2026-05-03 22:15 | 37.66297 | -25.97551 | 4018 ft | 222 kts | 319° |
| 2026-05-03 22:16 | 37.67543 | -25.98622 | 3939 ft | 214 kts | 345° |
| 2026-05-03 22:16 | 37.68986 | -25.98839 | 3815 ft | 207 kts | 13° |
| 2026-05-03 22:16 | 37.70320 | -25.98281 | 3686 ft | 201 kts | 27° |
| 2026-05-03 22:16 | 37.71605 | -25.97574 | 3564 ft | 201 kts | 27° |
| 2026-05-03 22:17 | 37.72891 | -25.96871 | 3436 ft | 202 kts | 27° |
| 2026-05-03 22:17 | 37.74182 | -25.96167 | 3202 ft | 203 kts | 27° |
| 2026-05-03 22:17 | 37.75469 | -25.95468 | 3001 ft | 196 kts | 27° |
| 2026-05-03 22:17 | 37.76734 | -25.94782 | 2965 ft | 201 kts | 27° |
| 2026-05-03 22:18 | 37.77952 | -25.93961 | 2893 ft | 196 kts | 43° |
| 2026-05-03 22:18 | 37.78772 | -25.92636 | 2817 ft | 188 kts | 67° |
| 2026-05-03 22:18 | 37.79053 | -25.91082 | 2732 ft | 178 kts | 89° |
| 2026-05-03 22:18 | 37.78844 | -25.89570 | 2680 ft | 169 kts | 103° |
| 2026-05-03 22:19 | 37.78538 | -25.88226 | 2568 ft | 150 kts | 103° |
| 2026-05-03 22:19 | 37.78275 | -25.87044 | 2502 ft | 135 kts | 103° |
| 2026-05-03 22:19 | 37.78023 | -25.85903 | 2440 ft | 131 kts | 102° |
| 2026-05-03 22:19 | 37.77782 | -25.84806 | 2409 ft | 129 kts | 102° |
| 2026-05-03 22:20 | 37.77546 | -25.83730 | 2338 ft | 128 kts | 102° |
| 2026-05-03 22:20 | 37.77305 | -25.82634 | 2255 ft | 128 kts | 102° |
| 2026-05-03 22:20 | 37.77070 | -25.81552 | 2064 ft | 127 kts | 102° |
| 2026-05-03 22:20 | 37.76834 | -25.80475 | 1869 ft | 127 kts | 103° |
| 2026-05-03 22:21 | 37.76600 | -25.79403 | 1690 ft | 127 kts | 102° |
| 2026-05-03 22:21 | 37.76365 | -25.78330 | 1510 ft | 126 kts | 102° |
| 2026-05-03 22:21 | 37.76129 | -25.77254 | 1329 ft | 128 kts | 102° |
| 2026-05-03 22:21 | 37.75891 | -25.76171 | 1158 ft | 127 kts | 102° |
| 2026-05-03 22:22 | 37.75658 | -25.75113 | 989 ft | 127 kts | 102° |
| 2026-05-03 22:22 | 37.75421 | -25.74034 | 812 ft | 127 kts | 101° |
| 2026-05-03 22:22 | 37.75181 | -25.72955 | 639 ft | 126 kts | 103° |
| 2026-05-03 22:22 | 37.74861 | -25.71918 | 468 ft | 126 kts | 103° |
| 2026-05-03 22:23 | 37.74549 | -25.70895 | 271 ft | 125 kts | 105° |
| 2026-05-03 22:23 | 37.74281 | -25.70003 | 237 ft | 80 kts | 110° |
| 2026-05-03 22:23 | 37.74168 | -25.69615 | 226 ft | 40 kts | 114° |
| 2026-05-03 22:23 | 37.74084 | -25.69385 | 221 ft | 25 kts | 115° |
| 2026-05-03 22:24 | 37.74046 | -25.69218 | 212 ft | 11 kts | 117° |
| 2026-05-03 22:24 | 37.74022 | -25.69224 | 213 ft | 2 kts | 242° |
| 2026-05-03 22:24 | 37.74041 | -25.69302 | 215 ft | 18 kts | 294° |
| 2026-05-03 22:24 | 37.74097 | -25.69457 | 220 ft | 18 kts | 293° |
| 2026-05-03 22:25 | 37.74139 | -25.69581 | 225 ft | 13 kts | 294° |
| 2026-05-03 22:25 | 37.74167 | -25.69665 | 230 ft | 11 kts | 292° |
| 2026-05-03 22:25 | 37.74206 | -25.69789 | 232 ft | 20 kts | 292° |
| 2026-05-03 22:25 | 37.74261 | -25.69964 | 235 ft | 21 kts | 291° |
| 2026-05-03 22:26 | 37.74310 | -25.70110 | 242 ft | 15 kts | 297° |
| 2026-05-03 22:26 | 37.74360 | -25.70210 | 245 ft | 11 kts | 306° |
| 2026-05-03 22:26 | 37.74396 | -25.70263 | 250 ft | 5 kts | 314° |
| 2026-05-03 22:26 | 37.74436 | -25.70308 | 254 ft | 11 kts | 320° |
| 2026-05-03 22:27 | 37.74511 | -25.70381 | 261 ft | 17 kts | 324° |
| 2026-05-03 22:27 | 37.74601 | -25.70495 | 271 ft | 19 kts | 299° |
| 2026-05-03 22:27 | 37.74655 | -25.70646 | 275 ft | 19 kts | 292° |
| 2026-05-03 22:27 | 37.74703 | -25.70798 | 273 ft | 18 kts | 292° |
| 2026-05-03 22:28 | 37.74747 | -25.70933 | 272 ft | 9 kts | 292° |
| 2026-05-03 22:28 | 37.74789 | -25.70956 | 275 ft | 7 kts | 13° |
| 2026-05-03 22:28 | 37.74826 | -25.70939 | 272 ft | 0 kts | 21° |